Terminal Aerodrome Forecast
Issued by NWS Duluth, MN

Home | Current Version | Previous Version | Text Only | Print | Product List | Glossary On
Versions: 1 2 3 4 5 6 7 8 9 10 11 12 13 14 15 16 17 18 19 20 21 22 23 24 25 26
000
FTUS43 KDLH 220400 AAA
TAFDLH
TAF AMD
KDLH 220406Z 2204/2224 15007KT P6SM VCSH BKN025 OVC040
     FM220600 VRB06KT P6SM -RA VCTS SCT015 OVC025CB
      TEMPO 2207/2209 VRB45KT 1SM +TSRA SCT005 OVC012CB
     FM220900 VRB04KT 2SM BR VCSH OVC006
     FM221400 29012KT P6SM SCT010 BKN025
     FM221800 33015G25KT P6SM BKN040=

USA.gov is the U.S. government's official web portal to all federal, state and local government web resources and services.